Time;durP1;ratioP1;P1;durP2;ratioP2;P2;SDS_P1;SDS_P2;PMS_P1;PMS_P2;Temp;Humidity;BMP_temperature;BMP_pressure;BME280_temperature;BME280_humidity;BME280_pressure;Samples;Min_cycle;Max_cycle;Signal;HPM_P1;HPM_P2
2023/06/21 00:02:19;;;;;;;11.25;7.90;;;;;;;20.13;92.77;101122.69;5074661;28;20553;-65
2023/06/21 00:04:44;;;;;;;9.75;7.63;;;;;;;20.14;92.42;101127.13;5074522;28;20486;-65
2023/06/21 00:07:10;;;;;;;9.13;7.78;;;;;;;20.20;92.69;101127.84;5074324;28;20067;-65
2023/06/21 00:09:35;;;;;;;11.38;8.20;;;;;;;20.13;92.97;101126.25;5074645;28;20031;-65
2023/06/21 00:12:01;;;;;;;8.88;7.88;;;;;;;20.15;93.26;101128.88;5074360;28;20039;-65
2023/06/21 00:14:26;;;;;;;10.30;8.02;;;;;;;20.11;93.23;101124.50;5074278;28;20033;-65
2023/06/21 00:16:52;;;;;;;9.65;7.72;;;;;;;20.09;93.48;101135.28;5074284;28;20040;-65
2023/06/21 00:19:18;;;;;;;11.02;8.23;;;;;;;20.01;93.83;101123.84;5074324;28;20059;-65
2023/06/21 00:21:44;;;;;;;12.93;8.18;;;;;;;19.96;94.35;101141.88;5056870;28;20056;-65
2023/06/21 00:24:09;;;;;;;10.48;8.10;;;;;;;19.98;94.60;101142.69;5074196;28;20486;-65
2023/06/21 00:26:34;;;;;;;14.13;7.78;;;;;;;19.96;94.55;101147.22;5073673;28;20052;-65
2023/06/21 00:29:00;;;;;;;10.80;8.30;;;;;;;20.02;93.90;101149.75;5074018;28;20110;-65
2023/06/21 00:31:25;;;;;;;9.93;7.75;;;;;;;20.02;93.94;101142.59;5074087;28;20367;-65
2023/06/21 00:33:50;;;;;;;11.15;8.38;;;;;;;20.07;94.12;101144.28;5074080;28;20056;-65
2023/06/21 00:36:16;;;;;;;10.45;8.55;;;;;;;19.98;94.37;101140.88;5074201;28;20065;-65
2023/06/21 00:38:41;;;;;;;10.68;8.73;;;;;;;19.94;94.65;101136.50;5074073;28;20039;-64
2023/06/21 00:41:07;;;;;;;11.25;8.60;;;;;;;19.97;94.62;101144.50;5074035;28;20081;-65
2023/06/21 00:43:33;;;;;;;13.55;9.27;;;;;;;19.97;94.69;101141.81;5073894;28;20029;-65
2023/06/21 00:45:59;;;;;;;12.73;8.73;;;;;;;19.99;94.31;101149.81;5073630;28;20032;-64
2023/06/21 00:48:28;;;;;;;12.50;8.70;;;;;;;20.06;93.60;101154.13;5073943;28;20060;-65
2023/06/21 00:50:57;;;;;;;10.93;8.57;;;;;;;20.18;92.86;101158.34;5073648;28;20401;-65
2023/06/21 00:53:24;;;;;;;11.65;8.38;;;;;;;20.13;92.78;101144.16;5073602;28;20431;-65
2023/06/21 00:55:50;;;;;;;11.68;8.50;;;;;;;20.07;93.52;101144.28;5073568;28;20465;-65
2023/06/21 00:58:20;;;;;;;10.38;8.43;;;;;;;20.06;93.17;101139.84;5073803;28;20044;-65
2023/06/21 01:00:47;;;;;;;12.77;8.75;;;;;;;19.97;94.20;101154.34;5073410;28;20047;-65
2023/06/21 01:03:12;;;;;;;10.98;8.60;;;;;;;20.00;94.49;101152.47;5073807;28;20150;-65
2023/06/21 01:05:38;;;;;;;10.55;8.40;;;;;;;19.99;93.87;101160.53;5073470;28;20506;-65
2023/06/21 01:08:31;;;;;;;10.35;8.68;;;;;;;19.98;93.72;101161.47;5073642;28;20038;-66
2023/06/21 01:11:11;;;;;;;10.23;8.23;;;;;;;20.09;92.99;101162.13;5073496;28;20028;-65
2023/06/21 01:13:36;;;;;;;10.00;7.95;;;;;;;20.05;93.48;101163.09;5073393;28;20507;-65
2023/06/21 01:16:09;;;;;;;12.73;8.27;;;;;;;20.14;93.03;101170.06;5073305;28;20020;-65
2023/06/21 01:18:36;;;;;;;12.02;8.43;;;;;;;20.17;92.55;101162.81;5073348;28;20470;-65
2023/06/21 01:21:06;;;;;;;9.88;8.48;;;;;;;20.18;92.70;101156.53;5073508;28;20031;-65
2023/06/21 01:24:02;;;;;;;12.93;8.77;;;;;;;20.22;91.37;101157.34;5073241;28;20035;-65
2023/06/21 01:26:52;;;;;;;10.55;8.80;;;;;;;20.25;91.93;101166.16;5054813;28;20436;-65
2023/06/21 01:29:24;;;;;;;13.07;9.23;;;;;;;20.26;91.30;101167.09;5073157;28;20115;-65
2023/06/21 01:31:52;;;;;;;10.50;8.65;;;;;;;20.20;91.54;101167.22;5073132;28;20037;-65
2023/06/21 01:34:18;;;;;;;14.35;9.00;;;;;;;20.16;92.45;101173.56;5073104;28;20031;-65
2023/06/21 01:36:44;;;;;;;13.90;9.25;;;;;;;20.17;92.31;101178.00;5073380;28;20474;-65
2023/06/21 01:39:09;;;;;;;13.30;9.30;;;;;;;20.13;92.50;101177.22;5073118;28;20107;-65
2023/06/21 01:41:36;;;;;;;13.80;9.40;;;;;;;20.03;92.99;101175.66;5073012;28;20098;-65
2023/06/21 01:44:03;;;;;;;14.43;9.18;;;;;;;20.01;93.08;101173.03;5072943;28;20531;-65
2023/06/21 01:46:29;;;;;;;11.65;9.38;;;;;;;19.95;93.43;101172.25;5072853;28;20465;-65
2023/06/21 01:48:56;;;;;;;12.43;9.25;;;;;;;19.90;93.43;101172.38;5072973;28;20047;-65
2023/06/21 01:51:23;;;;;;;11.68;9.57;;;;;;;19.92;93.55;101177.72;5076965;28;20055;-65
2023/06/21 01:53:48;;;;;;;15.43;10.68;;;;;;;19.91;93.71;101176.84;5077052;28;20033;-65
2023/06/21 01:56:17;;;;;;;12.73;9.73;;;;;;;19.88;93.56;101165.28;5077101;28;20044;-66
2023/06/21 01:58:45;;;;;;;15.05;10.25;;;;;;;19.94;93.31;101176.75;5076954;28;20024;-65
2023/06/21 02:01:11;;;;;;;13.95;9.80;;;;;;;20.00;93.33;101182.00;5059388;28;20017;-66
2023/06/21 02:03:40;;;;;;;12.57;9.77;;;;;;;19.99;92.63;101185.56;5077187;28;20033;-66
2023/06/21 02:06:07;;;;;;;12.13;9.75;;;;;;;19.98;92.56;101186.50;5076752;28;20990;-66
2023/06/21 02:08:34;;;;;;;11.52;9.48;;;;;;;20.02;92.52;101196.22;5076741;28;20024;-66
2023/06/21 02:11:02;;;;;;;13.93;10.02;;;;;;;19.95;92.81;101201.75;5076762;28;20430;-66
2023/06/21 02:13:28;;;;;;;13.10;9.80;;;;;;;20.09;92.68;101194.31;5076715;28;20052;-65
2023/06/21 02:15:54;;;;;;;13.68;10.07;;;;;;;19.95;92.41;101188.34;5076597;28;20465;-65
2023/06/21 02:18:25;;;;;;;14.13;10.43;;;;;;;19.97;92.82;101186.53;5076617;28;20033;-65
2023/06/21 02:20:52;;;;;;;12.00;9.98;;;;;;;19.97;92.65;101195.47;5059189;28;20025;-65
2023/06/21 02:23:17;;;;;;;11.27;9.07;;;;;;;20.08;91.89;101199.69;5076494;28;20021;-66
2023/06/21 02:25:43;;;;;;;14.50;9.80;;;;;;;20.03;92.20;101207.84;5058159;28;20448;-65
2023/06/21 02:28:08;;;;;;;13.35;10.30;;;;;;;19.94;92.32;101211.63;5058504;28;20052;-66
2023/06/21 02:30:34;;;;;;;14.55;10.50;;;;;;;19.90;92.88;101217.09;5076286;28;20058;-65
2023/06/21 02:33:00;;;;;;;12.95;10.32;;;;;;;19.87;92.91;101219.81;5076334;28;20473;-65
2023/06/21 02:35:25;;;;;;;13.30;10.43;;;;;;;19.85;92.46;101216.31;5058375;28;20470;-65
2023/06/21 02:37:51;;;;;;;12.88;10.50;;;;;;;19.71;93.52;101219.28;5076479;28;20039;-65
2023/06/21 02:40:16;;;;;;;13.50;10.65;;;;;;;19.63;94.89;101234.66;5076158;28;20078;-66
2023/06/21 02:42:41;;;;;;;14.18;10.05;;;;;;;19.62;94.35;101241.81;5076392;28;20109;-65
2023/06/21 02:45:09;;;;;;;13.25;10.73;;;;;;;19.67;94.66;101236.34;5076003;28;20028;-65
2023/06/21 02:47:35;;;;;;;14.20;10.50;;;;;;;19.66;94.76;101237.28;5076056;28;20059;-66
2023/06/21 02:50:02;;;;;;;12.27;10.73;;;;;;;19.61;94.69;101233.78;5075918;28;20025;-65
2023/06/21 02:52:27;;;;;;;14.23;11.07;;;;;;;19.64;94.99;101231.03;5075963;28;20082;-65
2023/06/21 02:54:53;;;;;;;12.40;10.75;;;;;;;19.59;94.98;101231.09;5076120;28;20466;-66
2023/06/21 02:57:19;;;;;;;12.95;11.05;;;;;;;19.62;94.74;101239.13;5075694;28;20060;-66
2023/06/21 02:59:45;;;;;;;14.77;10.82;;;;;;;19.72;94.40;101246.06;5075740;28;20397;-66
2023/06/21 03:02:10;;;;;;;13.10;10.90;;;;;;;19.75;94.39;101248.69;5074603;28;20028;-66
2023/06/21 03:04:36;;;;;;;13.63;10.20;;;;;;;19.83;93.29;101247.63;5075704;28;20024;-65
2023/06/21 03:07:01;;;;;;;14.65;11.20;;;;;;;19.84;93.47;101255.66;5075667;28;20466;-65
2023/06/21 03:09:29;;;;;;;14.00;10.43;;;;;;;19.89;93.00;101263.59;5075893;28;20028;-65
2023/06/21 03:11:55;;;;;;;13.52;10.93;;;;;;;19.84;93.30;101274.44;5075807;28;20028;-65
2023/06/21 03:14:20;;;;;;;16.17;11.30;;;;;;;19.83;93.05;101267.31;5075604;28;20381;-65
2023/06/21 03:16:46;;;;;;;18.55;11.55;;;;;;;19.77;93.22;101276.34;5075564;28;20028;-66
2023/06/21 03:19:12;;;;;;;12.63;10.93;;;;;;;19.76;94.27;101276.38;5075488;28;20025;-65
2023/06/21 03:21:37;;;;;;;14.77;10.93;;;;;;;19.73;93.47;101276.44;5075582;28;20477;-66
2023/06/21 03:24:03;;;;;;;15.00;11.77;;;;;;;19.71;93.82;101287.19;5075158;28;20535;-65
2023/06/21 03:26:29;;;;;;;13.65;10.98;;;;;;;19.72;93.71;101291.66;5074351;28;20604;-65
2023/06/21 03:28:55;;;;;;;15.60;10.35;;;;;;;19.67;94.10;101300.69;5074723;28;20036;-66
2023/06/21 03:34:42;;;;;;;12.95;10.23;;;;;;;19.72;93.98;101288.09;5113777;22;20067;-70
2023/06/21 03:37:07;;;;;;;14.32;10.35;;;;;;;19.74;93.31;101287.16;5074851;28;20036;-66
2023/06/21 03:39:32;;;;;;;14.85;10.90;;;;;;;19.74;93.92;101292.50;5075070;28;20079;-66
2023/06/21 03:41:58;;;;;;;14.10;10.77;;;;;;;19.73;94.26;101295.22;5075047;28;20103;-66
2023/06/21 03:44:23;;;;;;;12.88;9.82;;;;;;;19.80;94.16;101290.63;5074692;28;20017;-66
2023/06/21 03:46:48;;;;;;;13.43;10.43;;;;;;;19.78;93.95;101287.94;5074811;28;20064;-66
2023/06/21 03:49:14;;;;;;;12.75;10.27;;;;;;;19.89;93.24;101282.38;5074860;28;20489;-67
2023/06/21 03:51:39;;;;;;;14.20;10.38;;;;;;;19.99;92.80;101282.13;5074751;28;20024;-66
2023/06/21 03:54:04;;;;;;;13.27;10.27;;;;;;;20.08;91.75;101281.06;5074670;28;20040;-66
2023/06/21 03:56:30;;;;;;;13.00;9.82;;;;;;;20.05;91.42;101285.63;5076853;28;20024;-66
2023/06/21 03:58:55;;;;;;;12.40;9.18;;;;;;;20.11;91.05;101297.09;5076286;28;20051;-66
2023/06/21 04:01:22;;;;;;;14.65;9.20;;;;;;;20.18;90.74;101296.06;5075091;28;20469;-67
2023/06/21 04:03:48;;;;;;;11.60;9.90;;;;;;;20.22;91.01;101302.25;5074557;28;20477;-66
2023/06/21 04:06:13;;;;;;;14.43;10.18;;;;;;;20.22;91.32;101307.63;5074306;28;20029;-67
2023/06/21 04:08:38;;;;;;;14.85;10.50;;;;;;;20.17;91.91;101309.50;5074374;28;20024;-66
2023/06/21 04:11:04;;;;;;;12.25;10.95;;;;;;;20.17;92.63;101312.19;5074115;28;20100;-66
2023/06/21 04:13:29;;;;;;;15.07;11.55;;;;;;;20.21;92.85;101306.75;5073932;28;20025;-67
2023/06/21 04:15:55;;;;;;;14.63;10.73;;;;;;;20.24;92.58;101303.09;5073937;28;20027;-66
2023/06/21 04:18:20;;;;;;;15.68;12.15;;;;;;;20.21;92.71;101313.88;5074193;28;20025;-67
2023/06/21 04:20:46;;;;;;;15.63;11.88;;;;;;;20.17;93.51;101321.13;5074031;28;20036;-66
2023/06/21 04:23:11;;;;;;;13.18;11.77;;;;;;;20.07;93.92;101326.72;5073858;28;20028;-69
2023/06/21 04:25:37;;;;;;;17.20;12.80;;;;;;;19.99;94.96;101324.19;5074273;28;20029;-66
2023/06/21 04:28:02;;;;;;;13.38;11.98;;;;;;;20.06;94.27;101327.63;5073688;28;20086;-67
2023/06/21 04:30:33;;;;;;;16.45;12.50;;;;;;;20.08;94.00;101329.34;5073707;28;20020;-66
2023/06/21 04:32:59;;;;;;;15.32;12.80;;;;;;;20.04;94.48;101332.13;5073745;28;20400;-66
2023/06/21 04:35:25;;;;;;;16.17;11.45;;;;;;;20.06;94.57;101338.38;5073675;28;20561;-66
2023/06/21 04:37:50;;;;;;;14.32;12.50;;;;;;;20.01;94.26;101344.72;5039117;28;20064;-66
2023/06/21 04:40:17;;;;;;;17.80;12.65;;;;;;;19.99;95.51;101342.97;5073794;28;20024;-66
2023/06/21 04:42:45;;;;;;;16.38;13.63;;;;;;;19.95;96.21;101344.81;5073440;28;20485;-67
2023/06/21 04:45:14;;;;;;;17.75;13.30;;;;;;;20.01;96.06;101344.72;5073566;28;20551;-66
2023/06/21 04:47:41;;;;;;;15.80;13.68;;;;;;;20.05;96.06;101350.03;5055780;28;20123;-66
2023/06/21 04:50:07;;;;;;;18.67;14.07;;;;;;;20.13;96.41;101351.63;5073635;28;20393;-68
2023/06/21 04:52:32;;;;;;;16.27;13.73;;;;;;;20.23;96.05;101344.25;5073752;28;20038;-66
2023/06/21 04:55:01;;;;;;;17.67;14.27;;;;;;;20.25;95.60;101337.94;5073585;28;20078;-66
2023/06/21 04:57:26;;;;;;;19.75;14.65;;;;;;;20.23;96.15;101349.63;5073658;28;20032;-66
2023/06/21 04:59:52;;;;;;;17.65;13.50;;;;;;;20.20;95.77;101342.50;5073428;28;20421;-66
2023/06/21 05:02:17;;;;;;;20.75;15.13;;;;;;;20.27;96.87;101346.84;5073293;28;20485;-68
2023/06/21 05:04:42;;;;;;;18.23;15.18;;;;;;;20.21;97.07;101348.75;5073355;28;20025;-69
2023/06/21 05:07:08;;;;;;;17.73;14.90;;;;;;;20.22;97.63;101354.13;5073440;28;20031;-69
2023/06/21 05:09:36;;;;;;;17.77;14.18;;;;;;;20.27;96.99;101359.38;5073522;28;20016;-68
2023/06/21 05:12:01;;;;;;;18.40;15.30;;;;;;;20.32;97.17;101376.28;5073100;28;20588;-68
2023/06/21 05:14:27;;;;;;;23.55;15.60;;;;;;;20.34;97.51;101369.09;5073256;28;20028;-66
2023/06/21 05:16:52;;;;;;;18.50;14.85;;;;;;;20.39;97.39;101369.88;5073079;28;20029;-66
2023/06/21 05:19:18;;;;;;;20.25;15.02;;;;;;;20.39;96.26;101369.00;5073199;28;20024;-76
2023/06/21 05:21:44;;;;;;;18.83;15.10;;;;;;;20.41;96.15;101367.13;5073171;28;20020;-66
2023/06/21 05:24:10;;;;;;;18.27;15.55;;;;;;;20.31;96.07;101374.50;5072396;28;20036;-66
2023/06/21 05:26:35;;;;;;;17.23;15.05;;;;;;;20.32;96.12;101380.75;5072843;28;20036;-66
2023/06/21 05:29:00;;;;;;;19.33;15.43;;;;;;;20.44;96.82;101394.81;5073043;28;20381;-66
2023/06/21 05:31:27;;;;;;;20.33;16.00;;;;;;;20.49;96.69;101394.75;5072862;28;20508;-66
2023/06/21 05:33:52;;;;;;;22.15;15.35;;;;;;;20.61;95.79;101389.09;5072963;28;20170;-66
2023/06/21 05:36:17;;;;;;;20.42;15.43;;;;;;;20.70;95.24;101396.94;5072941;28;20532;-66
2023/06/21 05:38:43;;;;;;;22.40;15.63;;;;;;;20.66;95.50;101381.81;5073059;28;20086;-68
2023/06/21 05:41:08;;;;;;;18.77;15.43;;;;;;;20.71;94.83;101377.22;5072887;28;20032;-66
2023/06/21 05:43:33;;;;;;;18.13;13.93;;;;;;;20.78;93.47;101380.66;5073162;28;20520;-66
2023/06/21 05:45:59;;;;;;;21.33;15.35;;;;;;;20.78;93.57;101398.59;5072974;28;20024;-66
2023/06/21 05:48:24;;;;;;;20.55;14.57;;;;;;;20.83;93.05;101392.19;5073034;28;20024;-68
2023/06/21 05:50:50;;;;;;;19.60;15.05;;;;;;;20.87;93.07;101395.69;5072905;28;20477;-67
2023/06/21 05:53:15;;;;;;;18.02;14.63;;;;;;;20.86;92.35;101404.69;5072864;28;20045;-67
2023/06/21 05:55:40;;;;;;;18.10;15.25;;;;;;;20.88;92.35;101403.69;5072993;28;20032;-67
2023/06/21 05:58:06;;;;;;;18.83;14.55;;;;;;;20.91;91.80;101408.13;5073096;28;20032;-67
2023/06/21 06:00:31;;;;;;;18.48;15.65;;;;;;;20.97;92.52;101418.72;5072449;28;20489;-67
2023/06/21 06:02:57;;;;;;;20.77;15.77;;;;;;;21.08;92.53;101422.06;5072980;28;20028;-67
2023/06/21 06:05:22;;;;;;;19.25;14.73;;;;;;;21.15;91.00;101426.34;5072792;28;20046;-67
2023/06/21 06:07:47;;;;;;;22.27;14.93;;;;;;;21.17;91.05;101420.97;5072943;28;20035;-67
2023/06/21 06:10:13;;;;;;;20.10;15.02;;;;;;;21.21;90.18;101431.59;5072650;28;20043;-67
2023/06/21 06:12:38;;;;;;;19.42;15.88;;;;;;;21.19;89.24;101433.41;5072620;28;20033;-69
2023/06/21 06:15:04;;;;;;;21.83;15.30;;;;;;;21.15;89.45;101423.66;5072491;28;20095;-67
2023/06/21 06:17:30;;;;;;;19.73;14.48;;;;;;;21.28;90.33;101421.56;5072736;28;20117;-67
2023/06/21 06:19:56;;;;;;;24.92;15.95;;;;;;;21.36;90.14;101430.34;5072459;28;20466;-66
2023/06/21 06:22:21;;;;;;;21.17;17.00;;;;;;;21.44;89.83;101427.50;5054723;28;20044;-67
2023/06/21 06:24:48;;;;;;;19.08;15.07;;;;;;;21.61;88.44;101430.63;5054437;28;20029;-67
2023/06/21 06:27:14;;;;;;;20.30;16.23;;;;;;;21.75;88.31;101439.25;5072501;28;20036;-68
2023/06/21 06:29:39;;;;;;;21.33;16.08;;;;;;;21.96;87.89;101447.66;5072638;28;20078;-67
2023/06/21 06:32:05;;;;;;;18.15;14.93;;;;;;;22.14;85.50;101454.38;5072504;28;20040;-67
2023/06/21 06:34:30;;;;;;;22.10;14.43;;;;;;;22.29;84.78;101462.03;5072770;28;20020;-67
2023/06/21 06:36:55;;;;;;;20.73;15.48;;;;;;;22.41;83.39;101458.13;5075378;28;20041;-67
2023/06/21 06:39:21;;;;;;;14.80;12.02;;;;;;;22.40;79.44;101459.06;5076181;28;20112;-67
2023/06/21 06:41:47;;;;;;;16.98;12.90;;;;;;;22.48;79.40;101468.69;5076264;28;20048;-67
2023/06/21 06:44:13;;;;;;;16.42;12.75;;;;;;;22.68;79.33;101465.38;5075983;28;20029;-67
2023/06/21 06:46:38;;;;;;;17.30;12.93;;;;;;;22.74;77.67;101467.03;5076020;28;20103;-68
2023/06/21 06:49:03;;;;;;;15.38;12.32;;;;;;;22.68;76.74;101475.28;5076134;28;20032;-67
2023/06/21 06:51:29;;;;;;;18.75;12.52;;;;;;;22.87;77.40;101484.59;5075963;28;20035;-67
2023/06/21 06:53:54;;;;;;;13.93;11.32;;;;;;;23.00;75.78;101487.84;5077309;28;20021;-67
2023/06/21 06:56:19;;;;;;;17.25;12.23;;;;;;;22.93;75.31;101489.81;5077229;28;20025;-67
2023/06/21 06:58:45;;;;;;;14.57;11.20;;;;;;;22.85;73.75;101490.94;5077225;28;20025;-68
2023/06/21 07:01:10;;;;;;;15.27;10.88;;;;;;;23.07;74.46;101499.31;5076057;28;20060;-68
2023/06/21 07:03:36;;;;;;;14.10;10.60;;;;;;;23.10;74.07;101508.19;5076083;28;20036;-67
2023/06/21 07:06:01;;;;;;;11.65;9.15;;;;;;;23.38;73.21;101496.50;5057801;28;20035;-68
2023/06/21 07:08:27;;;;;;;12.20;10.02;;;;;;;23.42;72.16;101504.47;5075532;28;20385;-68
2023/06/21 07:10:53;;;;;;;12.73;10.27;;;;;;;23.48;70.76;101506.97;5075547;28;20029;-68
2023/06/21 07:13:18;;;;;;;12.25;10.10;;;;;;;23.51;72.06;101500.59;5075398;28;20016;-67
2023/06/21 07:15:44;;;;;;;12.80;9.02;;;;;;;23.50;71.14;101504.22;5075357;28;20032;-68
2023/06/21 07:18:11;;;;;;;13.60;9.68;;;;;;;23.60;71.19;101499.44;5075521;28;20033;-68
2023/06/21 07:20:36;;;;;;;12.88;10.35;;;;;;;23.77;70.75;101499.78;5075476;28;20477;-68
2023/06/21 07:23:02;;;;;;;12.82;9.73;;;;;;;23.85;68.47;101503.06;5075453;28;20031;-68
2023/06/21 07:25:27;;;;;;;11.75;9.70;;;;;;;23.99;68.47;101508.91;5075197;28;20389;-68
2023/06/21 07:27:53;;;;;;;13.00;10.13;;;;;;;24.13;68.29;101508.41;5057187;28;20033;-68
2023/06/21 07:30:20;;;;;;;13.43;9.73;;;;;;;24.21;67.96;101506.31;5057251;28;20068;-67
2023/06/21 07:32:47;;;;;;;13.13;9.93;;;;;;;24.34;68.49;101505.91;5075217;28;20025;-68
2023/06/21 07:35:14;;;;;;;19.13;9.75;;;;;;;24.43;67.32;101497.50;5074895;28;20040;-70
2023/06/21 07:37:40;;;;;;;13.18;10.80;;;;;;;24.76;66.82;101506.16;5075075;28;20098;-68
2023/06/21 07:40:07;;;;;;;13.07;9.98;;;;;;;24.94;65.38;101505.47;5074941;28;20466;-69
2023/06/21 07:42:32;;;;;;;14.38;9.43;;;;;;;25.06;64.84;101498.69;5074911;28;20481;-67
2023/06/21 07:44:57;;;;;;;10.48;8.27;;;;;;;25.29;63.72;101505.91;5074840;28;20032;-67
2023/06/21 07:47:23;;;;;;;10.52;8.27;;;;;;;25.43;63.18;101514.34;5056111;28;20544;-67
2023/06/21 07:49:49;;;;;;;12.10;8.98;;;;;;;25.58;62.47;101514.69;5057034;28;20024;-67
2023/06/21 07:52:14;;;;;;;11.98;9.07;;;;;;;25.66;61.59;101512.56;5074750;28;20033;-67
2023/06/21 07:54:41;;;;;;;11.93;9.48;;;;;;;25.82;62.95;101512.81;5056560;28;20028;-67
2023/06/21 07:57:07;;;;;;;12.73;9.93;;;;;;;26.00;59.94;101516.59;5074408;28;20173;-67
2023/06/21 07:59:32;;;;;;;11.02;9.75;;;;;;;26.04;59.70;101518.19;5074295;28;20054;-67
2023/06/21 08:01:57;;;;;;;12.85;9.57;;;;;;;25.84;58.62;101513.63;5074203;28;20055;-67
2023/06/21 08:04:23;;;;;;;14.10;10.02;;;;;;;25.91;60.51;101512.41;5074403;28;20411;-67
2023/06/21 08:06:48;;;;;;;12.93;10.32;;;;;;;26.08;59.87;101520.72;5074409;28;20073;-67
2023/06/21 08:09:14;;;;;;;13.70;10.50;;;;;;;26.35;59.57;101521.34;5074194;28;20507;-67
2023/06/21 08:11:39;;;;;;;13.27;10.48;;;;;;;26.40;58.45;101529.25;5074305;28;20024;-67
2023/06/21 08:14:04;;;;;;;15.50;10.70;;;;;;;26.13;57.88;101531.34;5074426;28;20504;-67
2023/06/21 08:16:31;;;;;;;12.18;10.07;;;;;;;26.33;58.93;101536.75;5074440;28;20108;-67
2023/06/21 08:18:56;;;;;;;13.68;11.80;;;;;;;26.33;58.50;101525.91;5074304;28;20032;-68
2023/06/21 08:21:21;;;;;;;14.05;11.50;;;;;;;26.47;59.86;101528.06;5074397;28;20029;-68
2023/06/21 08:23:47;;;;;;;14.20;9.88;;;;;;;26.62;58.55;101538.22;5074084;28;20051;-68
2023/06/21 08:26:12;;;;;;;12.75;10.00;;;;;;;26.74;56.59;101539.50;5074306;28;20052;-68
2023/06/21 08:28:37;;;;;;;10.32;8.82;;;;;;;26.76;56.03;101534.00;5074089;28;20473;-67
2023/06/21 08:31:03;;;;;;;10.05;8.48;;;;;;;26.92;54.93;101532.34;5073639;28;20066;-67
2023/06/21 08:33:28;;;;;;;10.75;9.40;;;;;;;26.90;56.84;101536.97;5073953;28;20400;-67
2023/06/21 08:35:54;;;;;;;11.23;9.57;;;;;;;27.03;55.25;101534.56;5073790;28;20052;-67
2023/06/21 08:38:19;;;;;;;11.35;9.55;;;;;;;27.22;54.13;101540.91;5073792;28;20170;-67
2023/06/21 08:40:45;;;;;;;12.85;9.43;;;;;;;27.21;54.17;101540.00;5055956;28;20033;-67
2023/06/21 08:43:11;;;;;;;14.63;8.30;;;;;;;27.00;52.67;101537.41;5074085;28;20025;-67
2023/06/21 08:45:36;;;;;;;9.77;8.30;;;;;;;26.89;54.58;101533.34;5073600;28;20104;-66
2023/06/21 08:48:05;;;;;;;11.10;8.88;;;;;;;26.90;54.88;101537.84;5073602;28;20033;-67
2023/06/21 08:50:37;;;;;;;10.02;8.70;;;;;;;26.89;52.47;101532.47;5073538;28;20020;-66
2023/06/21 08:53:06;;;;;;;10.18;7.80;;;;;;;26.82;52.56;101539.16;5073487;28;20108;-66
2023/06/21 08:55:35;;;;;;;10.32;7.30;;;;;;;26.82;52.37;101539.16;5073321;28;20043;-66
2023/06/21 08:58:06;;;;;;;9.98;6.47;;;;;;;27.05;52.24;101540.78;5073343;28;20603;-66
2023/06/21 09:00:39;;;;;;;8.60;7.22;;;;;;;27.14;51.02;101540.38;5073242;28;20020;-66
2023/06/21 09:03:13;;;;;;;7.82;5.40;;;;;;;27.36;49.57;101546.53;5073464;28;20028;-66
2023/06/21 09:05:45;;;;;;;8.65;5.38;;;;;;;27.56;49.23;101548.28;5073494;28;20025;-66
2023/06/21 09:08:12;;;;;;;7.35;5.50;;;;;;;27.75;48.02;101540.16;5073284;28;20169;-66
2023/06/21 09:10:40;;;;;;;7.47;5.85;;;;;;;27.90;46.36;101547.50;5073529;28;20112;-66
2023/06/21 09:13:06;;;;;;;8.07;5.40;;;;;;;28.11;47.18;101545.53;5055478;28;20025;-66
2023/06/21 09:15:32;;;;;;;7.20;5.65;;;;;;;28.15;48.26;101549.00;5073486;28;20028;-66
2023/06/21 09:17:58;;;;;;;10.43;6.90;;;;;;;28.25;48.41;101549.38;5073201;28;20028;-66
2023/06/21 09:20:29;;;;;;;8.00;6.93;;;;;;;28.36;48.29;101556.06;5073311;28;20029;-66
2023/06/21 09:22:58;;;;;;;8.90;6.32;;;;;;;28.40;45.28;101564.94;5073320;28;20028;-66
2023/06/21 09:25:25;;;;;;;9.02;6.10;;;;;;;28.55;45.16;101560.50;5073206;28;20439;-66
2023/06/21 09:27:52;;;;;;;8.48;7.05;;;;;;;28.55;46.05;101564.13;5073183;28;20027;-66
2023/06/21 09:30:19;;;;;;;10.80;7.22;;;;;;;28.88;46.02;101563.28;5072919;28;20020;-66
2023/06/21 09:32:44;;;;;;;9.77;6.32;;;;;;;28.78;45.09;101562.91;5072527;28;20382;-67
2023/06/21 09:35:10;;;;;;;7.60;6.45;;;;;;;28.65;45.39;101557.25;5051611;28;20045;-67
2023/06/21 09:37:38;;;;;;;8.75;6.15;;;;;;;28.91;46.37;101561.25;5052918;28;20029;-67
2023/06/21 09:40:04;;;;;;;9.73;6.00;;;;;;;28.99;44.26;101562.69;5053030;28;20079;-67
2023/06/21 09:42:30;;;;;;;7.28;5.90;;;;;;;29.04;44.43;101566.06;5052911;28;20490;-67
2023/06/21 09:44:56;;;;;;;8.52;5.72;;;;;;;29.27;43.29;101572.94;5053034;28;20108;-67
2023/06/21 09:47:22;;;;;;;4.88;3.92;;;;;;;29.14;41.67;101570.03;5053441;28;20090;-67
2023/06/21 09:49:48;;;;;;;7.22;4.47;;;;;;;29.13;42.23;101580.03;5054406;28;20386;-67
2023/06/21 09:52:14;;;;;;;7.38;4.88;;;;;;;29.04;42.83;101569.66;5054064;28;20029;-67
2023/06/21 09:54:44;;;;;;;6.90;5.13;;;;;;;29.21;43.72;101571.47;5054992;28;20056;-68
2023/06/21 09:57:10;;;;;;;6.63;5.22;;;;;;;29.35;42.31;101570.69;5052823;28;20070;-68
2023/06/21 09:59:39;;;;;;;6.50;4.75;;;;;;;29.58;42.14;101580.28;5045366;28;20100;-68
2023/06/21 10:02:06;;;;;;;6.95;4.93;;;;;;;29.64;41.63;101572.66;5052569;28;20025;-68
2023/06/21 10:04:41;;;;;;;7.72;5.00;;;;;;;29.80;41.40;101578.06;5052989;28;20029;-69
2023/06/21 10:07:06;;;;;;;6.57;3.90;;;;;;;30.14;39.92;101570.63;5052658;28;20033;-68
2023/06/21 10:09:37;;;;;;;6.38;3.78;;;;;;;30.28;39.97;101569.81;5045151;28;20032;-68
2023/06/21 10:12:05;;;;;;;5.13;3.45;;;;;;;30.31;38.51;101570.50;5056232;28;20052;-68
2023/06/21 10:14:31;;;;;;;8.02;3.38;;;;;;;30.35;37.99;101576.66;5056798;28;20071;-68
2023/06/21 10:16:57;;;;;;;5.28;3.50;;;;;;;29.84;38.71;101584.22;5056878;28;20055;-68
2023/06/21 10:19:25;;;;;;;4.35;3.03;;;;;;;30.07;37.36;101591.94;5056789;28;20028;-68
2023/06/21 10:22:07;;;;;;;4.97;3.40;;;;;;;30.26;39.49;101589.00;5056513;28;20032;-68
2023/06/21 10:24:52;;;;;;;4.40;3.20;;;;;;;30.58;39.67;101595.25;5056490;28;20052;-68
2023/06/21 10:27:21;;;;;;;6.25;3.58;;;;;;;30.49;37.63;101593.06;5056431;28;20120;-68
2023/06/21 10:29:57;;;;;;;4.93;4.00;;;;;;;30.65;39.20;101601.19;5056939;28;20102;-68
2023/06/21 10:32:27;;;;;;;6.25;4.55;;;;;;;30.97;39.19;101599.22;5061112;28;20029;-69
2023/06/21 10:34:57;;;;;;;8.85;5.07;;;;;;;30.68;39.04;101595.56;5064688;28;20180;-69
2023/06/21 10:37:28;;;;;;;5.88;4.57;;;;;;;30.81;37.97;101598.44;5071309;28;20024;-68
2023/06/21 10:40:00;;;;;;;6.35;4.00;;;;;;;30.75;37.25;101599.72;5076576;28;20031;-69
2023/06/21 10:42:27;;;;;;;5.53;3.75;;;;;;;30.65;38.11;101603.91;5076557;28;20378;-67
2023/06/21 10:44:55;;;;;;;6.82;4.20;;;;;;;30.92;37.17;101609.53;5076118;28;20090;-68
2023/06/21 10:47:21;;;;;;;6.35;4.30;;;;;;;31.26;36.65;101605.53;5076192;28;20419;-69
2023/06/21 10:49:48;;;;;;;6.30;4.40;;;;;;;31.59;37.63;101616.19;5075856;28;20029;-68
2023/06/21 10:52:15;;;;;;;7.97;4.85;;;;;;;31.56;37.41;101613.69;5075777;28;20036;-68
2023/06/21 10:54:42;;;;;;;8.15;4.97;;;;;;;31.60;36.21;101617.06;5075955;28;20112;-68
2023/06/21 10:57:08;;;;;;;6.13;4.47;;;;;;;31.54;36.70;101612.00;5075895;28;20036;-68
2023/06/21 10:59:35;;;;;;;5.10;4.00;;;;;;;31.63;36.54;101612.28;5075778;28;20029;-68
2023/06/21 11:02:00;;;;;;;6.47;3.85;;;;;;;31.77;35.16;101611.34;5075541;28;20401;-68
2023/06/21 11:04:26;;;;;;;5.80;3.80;;;;;;;31.94;34.61;101607.53;5075706;28;20055;-68
2023/06/21 11:07:00;;;;;;;8.85;3.90;;;;;;;32.03;35.81;101606.91;5075938;28;20060;-69
2023/06/21 11:09:26;;;;;;;6.18;4.10;;;;;;;32.01;35.20;101619.81;5075871;28;20029;-67
2023/06/21 11:11:53;;;;;;;7.88;4.30;;;;;;;31.99;35.26;101615.41;5075670;28;20033;-68
2023/06/21 11:14:33;;;;;;;6.03;4.03;;;;;;;32.13;36.88;101609.91;5075649;28;20130;-69
2023/06/21 11:17:08;;;;;;;7.68;4.60;;;;;;;32.34;36.13;101613.06;5075743;28;20362;-68